Terminal Aerodrome Forecast
Issued by NWS Louisville, KY

Home | Current Version | Previous Version | Text Only | Print | Product List | Glossary On
Versions: 1 2 3 4 5 6 7 8 9 10 11 12 13 14 15 16
164
FTUS43 KLMK 262320
TAFLEX
TAF
KLEX 262320Z 2700/2724 29005KT P6SM FEW060 SCT200
     FM270700 VRB03KT P6SM VCSH SCT050 BKN100
     FM271200 34005KT P6SM FEW045 SCT150=

USA.gov is the U.S. government's official web portal to all federal, state and local government web resources and services.